Decoded Metar for KEZS ( in _UNIDENTIFIED) (IATA:N/A) | Meteo·Mobile Aviation Weather
aviador You're here:

KEZS Decoded Metar

in _UNIDENTIFIED
Report Time2018-10-17 04:15:00
UTC Time2018-10-17 04:52:46
Flight Rules vfr VFR
Wind340° at 03 kt
W.Decomp.*RWY 35: 3.0 kt HW 0.4 kt LCW
RWY 30: 2.2 kt HW 2.0 kt RCW
W.Rank340° ranks 27
Current wind is below 340° avg. (6.7)
Visibility9999 m
Phenomena:N/A
Clouds:Overcast 065 Hf
Expected CloudBase > 3,200 ft AGL from Temp-Dew spread
Ceiling6,500 ft
Temp07°C (ISA -6)
Dew Point-1°C (57% RH)
AAT3.8°C
QNH1016 hPa
Density Alt26 ft
Elevation814 ft
Report Wrong Elevation
Raw Report
KEZS 170415Z AUTO 34003KT 10SM OVC065 07/M01 A2999 RMK AO2
T00651007=

Extra information for KEZS:More info

Metar Taf Metar & Taf Last 4 Metars F.Rules Stats Wind Profile Meteogram Temp Stats Metar ALERT Operation Metar Decoded Social comments